sensor_id;sensor_type;location;lat;lon;timestamp;P1;durP1;ratioP1;P2;durP2;ratioP2
46318;SDS011;32042;50.916;2.926;2023-07-31T00:01:15;16.45;;;6.53;;
46318;SDS011;32042;50.916;2.926;2023-07-31T00:03:41;21.90;;;6.53;;
46318;SDS011;32042;50.916;2.926;2023-07-31T00:06:06;12.50;;;5.80;;
46318;SDS011;32042;50.916;2.926;2023-07-31T00:08:32;14.85;;;6.30;;
46318;SDS011;32042;50.916;2.926;2023-07-31T00:10:58;13.55;;;5.53;;
46318;SDS011;32042;50.916;2.926;2023-07-31T00:13:23;11.35;;;6.03;;
46318;SDS011;32042;50.916;2.926;2023-07-31T00:15:49;15.63;;;5.55;;
46318;SDS011;32042;50.916;2.926;2023-07-31T00:18:15;19.58;;;7.43;;
46318;SDS011;32042;50.916;2.926;2023-07-31T00:20:41;12.27;;;4.60;;
46318;SDS011;32042;50.916;2.926;2023-07-31T00:23:06;19.88;;;6.10;;
46318;SDS011;32042;50.916;2.926;2023-07-31T00:25:32;18.92;;;5.93;;
46318;SDS011;32042;50.916;2.926;2023-07-31T00:27:58;13.30;;;5.57;;
46318;SDS011;32042;50.916;2.926;2023-07-31T00:30:23;17.35;;;6.15;;
46318;SDS011;32042;50.916;2.926;2023-07-31T00:32:50;13.98;;;5.70;;
46318;SDS011;32042;50.916;2.926;2023-07-31T00:35:16;11.20;;;5.18;;
46318;SDS011;32042;50.916;2.926;2023-07-31T00:37:41;16.50;;;5.22;;
46318;SDS011;32042;50.916;2.926;2023-07-31T00:40:07;15.52;;;4.57;;
46318;SDS011;32042;50.916;2.926;2023-07-31T00:42:33;17.42;;;5.57;;
46318;SDS011;32042;50.916;2.926;2023-07-31T00:44:59;12.40;;;5.28;;
46318;SDS011;32042;50.916;2.926;2023-07-31T00:47:25;9.75;;;4.53;;
46318;SDS011;32042;50.916;2.926;2023-07-31T00:49:51;14.85;;;5.78;;
46318;SDS011;32042;50.916;2.926;2023-07-31T00:52:17;20.52;;;5.40;;
46318;SDS011;32042;50.916;2.926;2023-07-31T00:54:44;11.90;;;5.80;;
46318;SDS011;32042;50.916;2.926;2023-07-31T00:57:10;12.02;;;4.70;;
46318;SDS011;32042;50.916;2.926;2023-07-31T00:59:36;10.73;;;4.60;;
46318;SDS011;32042;50.916;2.926;2023-07-31T01:02:02;10.05;;;4.70;;
46318;SDS011;32042;50.916;2.926;2023-07-31T01:04:28;10.18;;;5.07;;
46318;SDS011;32042;50.916;2.926;2023-07-31T01:09:29;11.57;;;5.72;;
46318;SDS011;32042;50.916;2.926;2023-07-31T01:12:06;14.88;;;4.60;;
46318;SDS011;32042;50.916;2.926;2023-07-31T01:14:32;10.88;;;5.18;;
46318;SDS011;32042;50.916;2.926;2023-07-31T01:16:58;13.18;;;5.13;;
46318;SDS011;32042;50.916;2.926;2023-07-31T01:19:24;8.68;;;4.88;;
46318;SDS011;32042;50.916;2.926;2023-07-31T01:25:12;14.75;;;4.82;;
46318;SDS011;32042;50.916;2.926;2023-07-31T01:27:58;13.45;;;5.03;;
46318;SDS011;32042;50.916;2.926;2023-07-31T01:30:27;10.82;;;4.53;;
46318;SDS011;32042;50.916;2.926;2023-07-31T01:33:00;11.48;;;4.40;;
46318;SDS011;32042;50.916;2.926;2023-07-31T01:35:32;14.27;;;4.65;;
46318;SDS011;32042;50.916;2.926;2023-07-31T01:37:58;8.95;;;4.05;;
46318;SDS011;32042;50.916;2.926;2023-07-31T01:40:24;15.43;;;4.40;;
46318;SDS011;32042;50.916;2.926;2023-07-31T01:42:50;13.18;;;4.40;;
46318;SDS011;32042;50.916;2.926;2023-07-31T01:45:15;14.77;;;4.53;;
46318;SDS011;32042;50.916;2.926;2023-07-31T01:47:41;15.02;;;4.30;;
46318;SDS011;32042;50.916;2.926;2023-07-31T01:50:07;11.70;;;4.03;;
46318;SDS011;32042;50.916;2.926;2023-07-31T01:52:33;9.50;;;4.50;;
46318;SDS011;32042;50.916;2.926;2023-07-31T01:54:59;9.75;;;4.28;;
46318;SDS011;32042;50.916;2.926;2023-07-31T01:57:24;15.38;;;4.53;;
46318;SDS011;32042;50.916;2.926;2023-07-31T01:59:50;10.55;;;4.35;;
46318;SDS011;32042;50.916;2.926;2023-07-31T02:02:18;10.88;;;3.97;;
46318;SDS011;32042;50.916;2.926;2023-07-31T02:04:44;12.65;;;4.28;;
46318;SDS011;32042;50.916;2.926;2023-07-31T02:07:10;12.00;;;4.57;;
46318;SDS011;32042;50.916;2.926;2023-07-31T02:09:35;11.77;;;4.07;;
46318;SDS011;32042;50.916;2.926;2023-07-31T02:12:01;6.90;;;3.90;;
46318;SDS011;32042;50.916;2.926;2023-07-31T02:14:27;12.10;;;3.75;;
46318;SDS011;32042;50.916;2.926;2023-07-31T02:16:53;8.63;;;3.72;;
46318;SDS011;32042;50.916;2.926;2023-07-31T02:19:18;10.00;;;4.05;;
46318;SDS011;32042;50.916;2.926;2023-07-31T02:21:44;6.78;;;3.45;;
46318;SDS011;32042;50.916;2.926;2023-07-31T02:24:10;10.45;;;4.03;;
46318;SDS011;32042;50.916;2.926;2023-07-31T02:26:35;7.40;;;3.88;;
46318;SDS011;32042;50.916;2.926;2023-07-31T02:29:01;9.80;;;3.85;;
46318;SDS011;32042;50.916;2.926;2023-07-31T02:31:27;7.55;;;4.53;;
46318;SDS011;32042;50.916;2.926;2023-07-31T02:33:54;11.57;;;3.65;;
46318;SDS011;32042;50.916;2.926;2023-07-31T02:36:20;11.60;;;3.95;;
46318;SDS011;32042;50.916;2.926;2023-07-31T02:38:47;8.18;;;3.67;;
46318;SDS011;32042;50.916;2.926;2023-07-31T02:41:14;8.73;;;4.05;;
46318;SDS011;32042;50.916;2.926;2023-07-31T02:43:41;12.20;;;4.22;;
46318;SDS011;32042;50.916;2.926;2023-07-31T02:46:07;9.10;;;4.10;;
46318;SDS011;32042;50.916;2.926;2023-07-31T02:48:34;7.00;;;3.47;;
46318;SDS011;32042;50.916;2.926;2023-07-31T02:51:01;9.55;;;4.00;;
46318;SDS011;32042;50.916;2.926;2023-07-31T02:53:27;8.25;;;3.95;;
46318;SDS011;32042;50.916;2.926;2023-07-31T02:55:52;11.98;;;4.18;;
46318;SDS011;32042;50.916;2.926;2023-07-31T02:58:18;7.80;;;4.30;;
46318;SDS011;32042;50.916;2.926;2023-07-31T03:00:44;12.45;;;3.78;;
46318;SDS011;32042;50.916;2.926;2023-07-31T03:03:10;8.15;;;4.18;;
46318;SDS011;32042;50.916;2.926;2023-07-31T03:05:36;13.15;;;4.38;;
46318;SDS011;32042;50.916;2.926;2023-07-31T03:08:02;5.72;;;4.13;;
46318;SDS011;32042;50.916;2.926;2023-07-31T03:10:28;11.63;;;4.03;;
46318;SDS011;32042;50.916;2.926;2023-07-31T03:12:54;11.98;;;4.22;;
46318;SDS011;32042;50.916;2.926;2023-07-31T03:15:20;6.65;;;3.85;;
46318;SDS011;32042;50.916;2.926;2023-07-31T03:17:46;11.55;;;4.30;;
46318;SDS011;32042;50.916;2.926;2023-07-31T03:20:11;8.65;;;4.28;;
46318;SDS011;32042;50.916;2.926;2023-07-31T03:22:37;8.90;;;3.58;;
46318;SDS011;32042;50.916;2.926;2023-07-31T03:25:03;9.13;;;3.47;;
46318;SDS011;32042;50.916;2.926;2023-07-31T03:27:29;7.60;;;3.55;;
46318;SDS011;32042;50.916;2.926;2023-07-31T03:29:55;6.28;;;3.20;;
46318;SDS011;32042;50.916;2.926;2023-07-31T03:32:21;7.25;;;2.97;;
46318;SDS011;32042;50.916;2.926;2023-07-31T03:34:46;7.85;;;3.45;;
46318;SDS011;32042;50.916;2.926;2023-07-31T03:37:12;7.20;;;3.75;;
46318;SDS011;32042;50.916;2.926;2023-07-31T03:39:38;5.90;;;3.40;;
46318;SDS011;32042;50.916;2.926;2023-07-31T03:42:04;9.65;;;3.50;;
46318;SDS011;32042;50.916;2.926;2023-07-31T03:44:29;6.78;;;3.58;;
46318;SDS011;32042;50.916;2.926;2023-07-31T03:46:55;7.40;;;3.78;;
46318;SDS011;32042;50.916;2.926;2023-07-31T03:49:21;9.45;;;3.90;;
46318;SDS011;32042;50.916;2.926;2023-07-31T03:51:47;6.63;;;3.15;;
46318;SDS011;32042;50.916;2.926;2023-07-31T03:54:12;8.15;;;3.17;;
46318;SDS011;32042;50.916;2.926;2023-07-31T03:56:39;8.23;;;3.50;;
46318;SDS011;32042;50.916;2.926;2023-07-31T03:59:04;7.38;;;3.10;;
46318;SDS011;32042;50.916;2.926;2023-07-31T04:01:30;8.27;;;3.65;;
46318;SDS011;32042;50.916;2.926;2023-07-31T04:03:56;10.85;;;3.83;;
46318;SDS011;32042;50.916;2.926;2023-07-31T04:06:21;8.68;;;3.28;;
46318;SDS011;32042;50.916;2.926;2023-07-31T04:08:47;7.78;;;3.38;;
46318;SDS011;32042;50.916;2.926;2023-07-31T04:11:13;8.38;;;3.78;;
46318;SDS011;32042;50.916;2.926;2023-07-31T04:13:39;8.18;;;2.95;;
46318;SDS011;32042;50.916;2.926;2023-07-31T04:16:05;9.75;;;3.42;;
46318;SDS011;32042;50.916;2.926;2023-07-31T04:18:31;11.00;;;3.60;;
46318;SDS011;32042;50.916;2.926;2023-07-31T04:20:57;7.15;;;3.53;;
46318;SDS011;32042;50.916;2.926;2023-07-31T04:23:27;9.27;;;3.38;;
46318;SDS011;32042;50.916;2.926;2023-07-31T04:25:53;9.05;;;3.70;;
46318;SDS011;32042;50.916;2.926;2023-07-31T04:28:19;8.45;;;4.00;;
46318;SDS011;32042;50.916;2.926;2023-07-31T04:30:44;7.10;;;3.22;;
46318;SDS011;32042;50.916;2.926;2023-07-31T04:33:10;8.80;;;3.67;;
46318;SDS011;32042;50.916;2.926;2023-07-31T04:35:36;7.85;;;3.17;;
46318;SDS011;32042;50.916;2.926;2023-07-31T04:38:01;7.15;;;3.33;;
46318;SDS011;32042;50.916;2.926;2023-07-31T04:40:27;7.18;;;3.53;;
46318;SDS011;32042;50.916;2.926;2023-07-31T04:42:53;10.25;;;3.10;;
46318;SDS011;32042;50.916;2.926;2023-07-31T04:45:18;5.00;;;2.95;;
46318;SDS011;32042;50.916;2.926;2023-07-31T04:47:44;5.82;;;2.70;;
46318;SDS011;32042;50.916;2.926;2023-07-31T04:50:10;5.97;;;3.13;;
46318;SDS011;32042;50.916;2.926;2023-07-31T04:52:36;6.50;;;3.05;;
46318;SDS011;32042;50.916;2.926;2023-07-31T04:55:01;6.93;;;3.58;;
46318;SDS011;32042;50.916;2.926;2023-07-31T04:57:28;8.80;;;3.03;;
46318;SDS011;32042;50.916;2.926;2023-07-31T04:59:53;7.93;;;3.15;;
46318;SDS011;32042;50.916;2.926;2023-07-31T05:02:19;8.63;;;3.60;;
46318;SDS011;32042;50.916;2.926;2023-07-31T05:04:45;5.45;;;3.10;;
46318;SDS011;32042;50.916;2.926;2023-07-31T05:07:11;13.93;;;4.30;;
46318;SDS011;32042;50.916;2.926;2023-07-31T05:09:37;7.43;;;3.30;;
46318;SDS011;32042;50.916;2.926;2023-07-31T05:12:04;7.90;;;3.67;;
46318;SDS011;32042;50.916;2.926;2023-07-31T05:14:31;11.43;;;3.58;;
46318;SDS011;32042;50.916;2.926;2023-07-31T05:16:56;7.05;;;3.50;;
46318;SDS011;32042;50.916;2.926;2023-07-31T05:19:22;8.25;;;4.15;;
46318;SDS011;32042;50.916;2.926;2023-07-31T05:21:48;7.70;;;3.80;;
46318;SDS011;32042;50.916;2.926;2023-07-31T05:24:13;5.72;;;3.03;;
46318;SDS011;32042;50.916;2.926;2023-07-31T05:26:39;10.40;;;3.10;;
46318;SDS011;32042;50.916;2.926;2023-07-31T05:29:05;6.47;;;3.88;;
46318;SDS011;32042;50.916;2.926;2023-07-31T05:31:31;9.02;;;3.88;;
46318;SDS011;32042;50.916;2.926;2023-07-31T05:33:57;8.48;;;4.03;;
46318;SDS011;32042;50.916;2.926;2023-07-31T05:36:23;9.30;;;3.72;;
46318;SDS011;32042;50.916;2.926;2023-07-31T05:38:49;9.68;;;3.92;;
46318;SDS011;32042;50.916;2.926;2023-07-31T05:41:14;9.07;;;3.75;;
46318;SDS011;32042;50.916;2.926;2023-07-31T05:43:41;5.95;;;3.33;;
46318;SDS011;32042;50.916;2.926;2023-07-31T05:46:08;7.35;;;3.40;;
46318;SDS011;32042;50.916;2.926;2023-07-31T05:48:34;5.38;;;3.13;;
46318;SDS011;32042;50.916;2.926;2023-07-31T05:51:00;7.25;;;3.42;;
46318;SDS011;32042;50.916;2.926;2023-07-31T05:53:26;7.47;;;3.40;;
46318;SDS011;32042;50.916;2.926;2023-07-31T05:55:51;8.82;;;4.55;;
46318;SDS011;32042;50.916;2.926;2023-07-31T05:58:17;6.43;;;3.20;;
46318;SDS011;32042;50.916;2.926;2023-07-31T06:00:43;5.45;;;2.85;;
46318;SDS011;32042;50.916;2.926;2023-07-31T06:03:08;5.05;;;3.10;;
46318;SDS011;32042;50.916;2.926;2023-07-31T06:05:34;7.93;;;3.53;;
46318;SDS011;32042;50.916;2.926;2023-07-31T06:08:00;6.25;;;2.80;;
46318;SDS011;32042;50.916;2.926;2023-07-31T06:10:26;4.43;;;2.85;;
46318;SDS011;32042;50.916;2.926;2023-07-31T06:12:52;8.15;;;3.55;;
46318;SDS011;32042;50.916;2.926;2023-07-31T06:15:19;5.93;;;2.97;;
46318;SDS011;32042;50.916;2.926;2023-07-31T06:17:45;4.97;;;3.67;;
46318;SDS011;32042;50.916;2.926;2023-07-31T06:20:11;6.47;;;2.60;;
46318;SDS011;32042;50.916;2.926;2023-07-31T06:22:37;5.38;;;2.88;;
46318;SDS011;32042;50.916;2.926;2023-07-31T06:25:03;8.60;;;3.15;;
46318;SDS011;32042;50.916;2.926;2023-07-31T06:27:29;7.45;;;3.13;;
46318;SDS011;32042;50.916;2.926;2023-07-31T06:29:55;4.93;;;2.50;;
46318;SDS011;32042;50.916;2.926;2023-07-31T06:32:20;4.15;;;3.15;;
46318;SDS011;32042;50.916;2.926;2023-07-31T06:34:46;6.75;;;2.80;;
46318;SDS011;32042;50.916;2.926;2023-07-31T06:37:12;6.70;;;2.97;;
46318;SDS011;32042;50.916;2.926;2023-07-31T06:39:38;7.45;;;2.58;;
46318;SDS011;32042;50.916;2.926;2023-07-31T06:42:03;4.13;;;2.33;;
46318;SDS011;32042;50.916;2.926;2023-07-31T06:44:29;5.20;;;2.33;;
46318;SDS011;32042;50.916;2.926;2023-07-31T06:46:55;4.38;;;2.33;;
46318;SDS011;32042;50.916;2.926;2023-07-31T06:49:21;5.40;;;2.28;;
46318;SDS011;32042;50.916;2.926;2023-07-31T06:51:47;5.28;;;2.28;;
46318;SDS011;32042;50.916;2.926;2023-07-31T06:54:12;6.45;;;2.80;;
46318;SDS011;32042;50.916;2.926;2023-07-31T06:56:38;7.53;;;3.17;;
46318;SDS011;32042;50.916;2.926;2023-07-31T06:59:04;3.95;;;2.42;;
46318;SDS011;32042;50.916;2.926;2023-07-31T07:01:29;3.70;;;2.35;;
46318;SDS011;32042;50.916;2.926;2023-07-31T07:03:55;4.03;;;2.65;;
46318;SDS011;32042;50.916;2.926;2023-07-31T07:06:22;5.20;;;2.08;;
46318;SDS011;32042;50.916;2.926;2023-07-31T07:08:47;2.75;;;2.05;;
46318;SDS011;32042;50.916;2.926;2023-07-31T07:11:14;2.80;;;2.50;;
46318;SDS011;32042;50.916;2.926;2023-07-31T07:13:39;5.63;;;2.90;;
46318;SDS011;32042;50.916;2.926;2023-07-31T07:16:05;5.40;;;2.47;;
46318;SDS011;32042;50.916;2.926;2023-07-31T07:18:31;3.58;;;2.30;;
46318;SDS011;32042;50.916;2.926;2023-07-31T07:20:57;3.90;;;2.10;;
46318;SDS011;32042;50.916;2.926;2023-07-31T07:23:23;2.58;;;2.13;;
46318;SDS011;32042;50.916;2.926;2023-07-31T07:25:49;4.85;;;2.45;;
46318;SDS011;32042;50.916;2.926;2023-07-31T07:28:16;2.63;;;2.10;;
46318;SDS011;32042;50.916;2.926;2023-07-31T07:30:42;4.38;;;2.20;;
46318;SDS011;32042;50.916;2.926;2023-07-31T07:33:07;3.42;;;2.30;;
46318;SDS011;32042;50.916;2.926;2023-07-31T07:35:33;3.13;;;2.17;;
46318;SDS011;32042;50.916;2.926;2023-07-31T07:38:00;4.13;;;2.33;;
46318;SDS011;32042;50.916;2.926;2023-07-31T07:40:26;2.67;;;1.75;;
46318;SDS011;32042;50.916;2.926;2023-07-31T07:42:52;2.20;;;2.00;;
46318;SDS011;32042;50.916;2.926;2023-07-31T07:45:18;2.22;;;1.90;;
46318;SDS011;32042;50.916;2.926;2023-07-31T07:47:44;3.55;;;2.25;;
46318;SDS011;32042;50.916;2.926;2023-07-31T07:50:09;3.08;;;1.98;;
46318;SDS011;32042;50.916;2.926;2023-07-31T07:52:35;3.92;;;2.03;;
46318;SDS011;32042;50.916;2.926;2023-07-31T07:55:01;2.42;;;1.85;;
46318;SDS011;32042;50.916;2.926;2023-07-31T07:57:28;3.05;;;2.33;;
46318;SDS011;32042;50.916;2.926;2023-07-31T07:59:54;3.22;;;1.60;;
46318;SDS011;32042;50.916;2.926;2023-07-31T08:02:20;6.00;;;2.08;;
46318;SDS011;32042;50.916;2.926;2023-07-31T08:04:46;4.95;;;2.38;;
46318;SDS011;32042;50.916;2.926;2023-07-31T08:07:12;2.22;;;2.00;;
46318;SDS011;32042;50.916;2.926;2023-07-31T08:09:38;2.80;;;2.17;;
46318;SDS011;32042;50.916;2.926;2023-07-31T08:12:05;5.40;;;2.10;;
46318;SDS011;32042;50.916;2.926;2023-07-31T08:14:31;2.28;;;1.63;;
46318;SDS011;32042;50.916;2.926;2023-07-31T08:16:56;4.60;;;1.63;;
46318;SDS011;32042;50.916;2.926;2023-07-31T08:19:22;2.80;;;1.60;;
46318;SDS011;32042;50.916;2.926;2023-07-31T08:21:49;3.17;;;2.00;;
46318;SDS011;32042;50.916;2.926;2023-07-31T08:24:15;2.65;;;1.80;;
46318;SDS011;32042;50.916;2.926;2023-07-31T08:26:41;4.20;;;2.00;;
46318;SDS011;32042;50.916;2.926;2023-07-31T08:29:07;2.80;;;1.80;;
46318;SDS011;32042;50.916;2.926;2023-07-31T08:31:33;3.80;;;2.03;;
46318;SDS011;32042;50.916;2.926;2023-07-31T08:33:59;2.22;;;1.65;;
46318;SDS011;32042;50.916;2.926;2023-07-31T08:36:26;2.55;;;1.90;;
46318;SDS011;32042;50.916;2.926;2023-07-31T08:38:52;3.58;;;2.00;;
46318;SDS011;32042;50.916;2.926;2023-07-31T08:41:18;5.13;;;2.13;;
46318;SDS011;32042;50.916;2.926;2023-07-31T08:43:44;5.43;;;2.22;;
46318;SDS011;32042;50.916;2.926;2023-07-31T08:46:11;3.20;;;2.20;;
46318;SDS011;32042;50.916;2.926;2023-07-31T08:48:38;2.63;;;2.25;;
46318;SDS011;32042;50.916;2.926;2023-07-31T08:51:05;2.80;;;2.38;;
46318;SDS011;32042;50.916;2.926;2023-07-31T08:53:32;3.83;;;2.20;;
46318;SDS011;32042;50.916;2.926;2023-07-31T08:55:58;5.00;;;2.75;;
46318;SDS011;32042;50.916;2.926;2023-07-31T08:58:24;5.15;;;2.92;;
46318;SDS011;32042;50.916;2.926;2023-07-31T09:00:52;3.35;;;3.03;;
46318;SDS011;32042;50.916;2.926;2023-07-31T09:03:21;4.55;;;3.28;;
46318;SDS011;32042;50.916;2.926;2023-07-31T09:05:49;3.10;;;2.78;;
46318;SDS011;32042;50.916;2.926;2023-07-31T09:08:18;5.65;;;3.08;;
46318;SDS011;32042;50.916;2.926;2023-07-31T09:10:46;4.63;;;3.00;;
46318;SDS011;32042;50.916;2.926;2023-07-31T09:13:13;6.57;;;3.30;;
46318;SDS011;32042;50.916;2.926;2023-07-31T09:15:39;4.78;;;3.58;;
46318;SDS011;32042;50.916;2.926;2023-07-31T09:18:07;5.57;;;3.53;;
46318;SDS011;32042;50.916;2.926;2023-07-31T09:20:34;5.78;;;3.80;;
46318;SDS011;32042;50.916;2.926;2023-07-31T09:25:37;6.15;;;3.75;;
46318;SDS011;32042;50.916;2.926;2023-07-31T09:28:05;3.92;;;3.35;;
46318;SDS011;32042;50.916;2.926;2023-07-31T09:30:47;5.15;;;3.47;;
46318;SDS011;32042;50.916;2.926;2023-07-31T09:33:15;5.93;;;3.75;;
46318;SDS011;32042;50.916;2.926;2023-07-31T09:35:41;7.03;;;4.07;;
46318;SDS011;32042;50.916;2.926;2023-07-31T09:38:08;6.85;;;4.15;;
46318;SDS011;32042;50.916;2.926;2023-07-31T09:40:39;5.97;;;3.90;;
46318;SDS011;32042;50.916;2.926;2023-07-31T09:43:07;7.10;;;4.63;;
46318;SDS011;32042;50.916;2.926;2023-07-31T09:45:36;4.53;;;4.00;;
46318;SDS011;32042;50.916;2.926;2023-07-31T09:48:07;5.65;;;4.10;;
46318;SDS011;32042;50.916;2.926;2023-07-31T09:50:36;6.00;;;4.30;;
46318;SDS011;32042;50.916;2.926;2023-07-31T09:53:03;5.72;;;4.13;;
46318;SDS011;32042;50.916;2.926;2023-07-31T09:55:29;8.27;;;4.18;;
46318;SDS011;32042;50.916;2.926;2023-07-31T09:57:56;7.38;;;4.35;;
46318;SDS011;32042;50.916;2.926;2023-07-31T10:00:23;8.73;;;4.10;;
46318;SDS011;32042;50.916;2.926;2023-07-31T10:02:52;5.22;;;4.22;;
46318;SDS011;32042;50.916;2.926;2023-07-31T10:05:18;6.53;;;4.10;;
46318;SDS011;32042;50.916;2.926;2023-07-31T10:07:51;11.43;;;4.47;;
46318;SDS011;32042;50.916;2.926;2023-07-31T10:10:20;6.78;;;4.40;;
46318;SDS011;32042;50.916;2.926;2023-07-31T10:12:50;5.53;;;3.85;;
46318;SDS011;32042;50.916;2.926;2023-07-31T10:15:17;6.40;;;4.28;;
46318;SDS011;32042;50.916;2.926;2023-07-31T10:17:45;8.23;;;3.85;;
46318;SDS011;32042;50.916;2.926;2023-07-31T10:20:13;8.20;;;3.75;;
46318;SDS011;32042;50.916;2.926;2023-07-31T10:22:41;4.18;;;3.30;;
46318;SDS011;32042;50.916;2.926;2023-07-31T10:25:08;5.55;;;3.35;;
46318;SDS011;32042;50.916;2.926;2023-07-31T10:27:40;4.47;;;3.13;;
46318;SDS011;32042;50.916;2.926;2023-07-31T10:30:11;6.40;;;3.60;;
46318;SDS011;32042;50.916;2.926;2023-07-31T10:32:40;6.90;;;3.38;;
46318;SDS011;32042;50.916;2.926;2023-07-31T10:35:08;9.40;;;3.35;;
46318;SDS011;32042;50.916;2.926;2023-07-31T10:37:41;5.78;;;3.75;;
46318;SDS011;32042;50.916;2.926;2023-07-31T10:42:47;8.38;;;3.40;;
46318;SDS011;32042;50.916;2.926;2023-07-31T10:45:14;6.25;;;3.45;;
46318;SDS011;32042;50.916;2.926;2023-07-31T10:53:22;5.95;;;3.30;;
46318;SDS011;32042;50.916;2.926;2023-07-31T10:55:48;5.18;;;3.28;;
46318;SDS011;32042;50.916;2.926;2023-07-31T10:58:17;4.90;;;3.30;;
46318;SDS011;32042;50.916;2.926;2023-07-31T11:00:44;4.32;;;3.22;;
46318;SDS011;32042;50.916;2.926;2023-07-31T11:03:12;4.90;;;2.83;;
46318;SDS011;32042;50.916;2.926;2023-07-31T11:05:46;4.35;;;3.05;;
46318;SDS011;32042;50.916;2.926;2023-07-31T11:10:38;4.70;;;3.20;;
46318;SDS011;32042;50.916;2.926;2023-07-31T11:13:04;4.05;;;2.75;;
46318;SDS011;32042;50.916;2.926;2023-07-31T11:15:30;4.32;;;3.10;;
46318;SDS011;32042;50.916;2.926;2023-07-31T11:17:56;5.53;;;2.90;;
46318;SDS011;32042;50.916;2.926;2023-07-31T11:20:25;4.93;;;2.95;;
46318;SDS011;32042;50.916;2.926;2023-07-31T11:22:51;5.60;;;3.28;;
46318;SDS011;32042;50.916;2.926;2023-07-31T11:25:17;5.72;;;3.03;;
46318;SDS011;32042;50.916;2.926;2023-07-31T11:27:43;4.65;;;3.35;;
46318;SDS011;32042;50.916;2.926;2023-07-31T11:30:10;3.75;;;2.70;;
46318;SDS011;32042;50.916;2.926;2023-07-31T11:32:36;5.57;;;2.53;;
46318;SDS011;32042;50.916;2.926;2023-07-31T11:35:02;5.95;;;2.78;;
46318;SDS011;32042;50.916;2.926;2023-07-31T11:37:43;4.35;;;3.03;;
46318;SDS011;32042;50.916;2.926;2023-07-31T11:40:09;5.00;;;3.63;;
46318;SDS011;32042;50.916;2.926;2023-07-31T11:42:36;5.00;;;3.80;;
46318;SDS011;32042;50.916;2.926;2023-07-31T11:45:05;5.82;;;2.92;;
46318;SDS011;32042;50.916;2.926;2023-07-31T11:47:35;4.47;;;2.80;;
46318;SDS011;32042;50.916;2.926;2023-07-31T11:50:02;4.30;;;2.95;;
46318;SDS011;32042;50.916;2.926;2023-07-31T11:52:29;3.72;;;2.20;;
46318;SDS011;32042;50.916;2.926;2023-07-31T11:55:02;4.35;;;2.22;;
46318;SDS011;32042;50.916;2.926;2023-07-31T11:57:28;3.50;;;2.25;;
46318;SDS011;32042;50.916;2.926;2023-07-31T11:59:54;4.25;;;2.50;;
46318;SDS011;32042;50.916;2.926;2023-07-31T12:02:22;4.60;;;2.28;;
46318;SDS011;32042;50.916;2.926;2023-07-31T12:04:48;4.63;;;2.10;;
46318;SDS011;32042;50.916;2.926;2023-07-31T12:07:14;3.97;;;2.20;;
46318;SDS011;32042;50.916;2.926;2023-07-31T12:09:50;2.72;;;2.33;;
46318;SDS011;32042;50.916;2.926;2023-07-31T12:12:21;3.05;;;2.33;;
46318;SDS011;32042;50.916;2.926;2023-07-31T12:14:50;3.83;;;2.35;;
46318;SDS011;32042;50.916;2.926;2023-07-31T12:17:17;4.22;;;2.60;;
46318;SDS011;32042;50.916;2.926;2023-07-31T12:19:45;4.72;;;2.80;;
46318;SDS011;32042;50.916;2.926;2023-07-31T12:22:13;3.17;;;2.60;;
46318;SDS011;32042;50.916;2.926;2023-07-31T12:24:41;3.35;;;3.05;;
46318;SDS011;32042;50.916;2.926;2023-07-31T12:27:12;4.53;;;2.92;;
46318;SDS011;32042;50.916;2.926;2023-07-31T12:29:40;3.63;;;3.10;;
46318;SDS011;32042;50.916;2.926;2023-07-31T12:34:50;3.67;;;2.95;;
46318;SDS011;32042;50.916;2.926;2023-07-31T12:37:16;3.90;;;3.13;;
46318;SDS011;32042;50.916;2.926;2023-07-31T12:39:42;5.35;;;3.47;;
46318;SDS011;32042;50.916;2.926;2023-07-31T12:42:08;4.70;;;3.28;;
46318;SDS011;32042;50.916;2.926;2023-07-31T12:44:34;4.25;;;3.53;;
46318;SDS011;32042;50.916;2.926;2023-07-31T12:46:59;6.43;;;3.50;;
46318;SDS011;32042;50.916;2.926;2023-07-31T12:49:25;2.70;;;2.50;;
46318;SDS011;32042;50.916;2.926;2023-07-31T12:51:51;2.40;;;2.20;;
46318;SDS011;32042;50.916;2.926;2023-07-31T12:54:16;3.95;;;2.75;;
46318;SDS011;32042;50.916;2.926;2023-07-31T12:56:42;4.43;;;2.10;;
46318;SDS011;32042;50.916;2.926;2023-07-31T12:59:08;2.42;;;2.05;;
46318;SDS011;32042;50.916;2.926;2023-07-31T13:01:34;2.35;;;1.80;;
46318;SDS011;32042;50.916;2.926;2023-07-31T13:04:00;1.88;;;1.75;;
46318;SDS011;32042;50.916;2.926;2023-07-31T13:06:25;1.90;;;1.60;;
46318;SDS011;32042;50.916;2.926;2023-07-31T13:08:51;1.52;;;1.20;;
46318;SDS011;32042;50.916;2.926;2023-07-31T13:11:17;3.55;;;1.30;;
46318;SDS011;32042;50.916;2.926;2023-07-31T13:13:42;1.77;;;1.52;;
46318;SDS011;32042;50.916;2.926;2023-07-31T13:16:08;1.60;;;1.50;;
46318;SDS011;32042;50.916;2.926;2023-07-31T13:18:34;2.10;;;1.60;;
46318;SDS011;32042;50.916;2.926;2023-07-31T13:20:59;2.47;;;1.52;;
46318;SDS011;32042;50.916;2.926;2023-07-31T13:23:25;1.65;;;1.40;;
46318;SDS011;32042;50.916;2.926;2023-07-31T13:25:51;1.33;;;1.08;;
46318;SDS011;32042;50.916;2.926;2023-07-31T13:28:17;0.88;;;0.80;;
46318;SDS011;32042;50.916;2.926;2023-07-31T13:30:42;1.13;;;1.00;;
46318;SDS011;32042;50.916;2.926;2023-07-31T13:33:08;1.60;;;0.90;;
46318;SDS011;32042;50.916;2.926;2023-07-31T13:35:34;1.20;;;0.90;;
46318;SDS011;32042;50.916;2.926;2023-07-31T13:37:59;0.90;;;0.73;;
46318;SDS011;32042;50.916;2.926;2023-07-31T13:40:25;1.25;;;0.57;;
46318;SDS011;32042;50.916;2.926;2023-07-31T13:42:51;1.20;;;0.60;;
46318;SDS011;32042;50.916;2.926;2023-07-31T13:45:18;1.55;;;0.90;;
46318;SDS011;32042;50.916;2.926;2023-07-31T13:47:44;0.60;;;0.60;;
46318;SDS011;32042;50.916;2.926;2023-07-31T13:50:09;0.73;;;0.50;;
46318;SDS011;32042;50.916;2.926;2023-07-31T13:52:35;0.73;;;0.70;;
46318;SDS011;32042;50.916;2.926;2023-07-31T13:55:01;2.45;;;0.60;;
46318;SDS011;32042;50.916;2.926;2023-07-31T13:57:27;1.67;;;0.68;;
46318;SDS011;32042;50.916;2.926;2023-07-31T13:59:53;1.13;;;0.60;;
46318;SDS011;32042;50.916;2.926;2023-07-31T14:02:19;0.40;;;0.40;;
46318;SDS011;32042;50.916;2.926;2023-07-31T14:04:44;2.08;;;0.55;;
46318;SDS011;32042;50.916;2.926;2023-07-31T14:07:10;1.85;;;0.40;;
46318;SDS011;32042;50.916;2.926;2023-07-31T14:09:36;0.40;;;0.40;;
46318;SDS011;32042;50.916;2.926;2023-07-31T14:12:02;0.40;;;0.40;;
46318;SDS011;32042;50.916;2.926;2023-07-31T14:14:28;0.88;;;0.40;;
46318;SDS011;32042;50.916;2.926;2023-07-31T14:16:53;0.60;;;0.38;;
46318;SDS011;32042;50.916;2.926;2023-07-31T14:19:19;0.65;;;0.40;;
46318;SDS011;32042;50.916;2.926;2023-07-31T14:21:45;3.97;;;0.30;;
46318;SDS011;32042;50.916;2.926;2023-07-31T14:24:11;0.70;;;0.50;;
46318;SDS011;32042;50.916;2.926;2023-07-31T14:26:36;0.45;;;0.40;;
46318;SDS011;32042;50.916;2.926;2023-07-31T14:29:02;0.82;;;0.50;;
46318;SDS011;32042;50.916;2.926;2023-07-31T14:31:28;0.25;;;0.22;;
46318;SDS011;32042;50.916;2.926;2023-07-31T14:33:54;1.27;;;0.30;;
46318;SDS011;32042;50.916;2.926;2023-07-31T14:36:19;0.30;;;0.30;;
46318;SDS011;32042;50.916;2.926;2023-07-31T14:38:45;0.22;;;0.22;;
46318;SDS011;32042;50.916;2.926;2023-07-31T14:41:11;0.30;;;0.20;;
46318;SDS011;32042;50.916;2.926;2023-07-31T14:43:36;0.30;;;0.30;;
46318;SDS011;32042;50.916;2.926;2023-07-31T14:46:02;0.45;;;0.40;;
46318;SDS011;32042;50.916;2.926;2023-07-31T14:48:28;0.50;;;0.22;;
46318;SDS011;32042;50.916;2.926;2023-07-31T14:50:54;0.40;;;0.32;;
46318;SDS011;32042;50.916;2.926;2023-07-31T14:53:20;0.40;;;0.40;;
46318;SDS011;32042;50.916;2.926;2023-07-31T14:55:46;0.98;;;0.30;;
46318;SDS011;32042;50.916;2.926;2023-07-31T14:58:12;0.17;;;0.17;;
46318;SDS011;32042;50.916;2.926;2023-07-31T15:00:39;0.30;;;0.30;;
46318;SDS011;32042;50.916;2.926;2023-07-31T15:03:04;0.57;;;0.30;;